Tiempo atmosférico en la estación meteorológica de Almansa, Albacete (715 m.)



Fecha
DESCASC
Temp. máxima en grados centígrados (hora)
DESCASC
Temp. mínima en grados centígrados (hora)
DESCASC
Temp. media en grados centígrados
DESCASC
Racha de viento máxima en m/sg (hora)
DESCASC
Velocidad máxima media en intervalos de 10 minutos(hora)
DESCASC
Precipitaciones diarias en mm
DESCASC
Precipitaciones de 00:00 a 06:00 en mm
DESCASC
Precipitaciones de 06:00 a 12:00 en mm
DESCASC
Precipitaciones de 12:00 a 18:00 en mm
DESCASC
Precipitaciones de 18:00 a 24:00 en mm
DESCASC
26-03-2020 12 (14:40) 3.6 (22:00) 7.8 7.78 (12:50) 3.06 (11:50) 0.4 0.4 0 0 0
25-03-2020 8.6 (14:50) 4.3 (07:20) 6.5 7.22 (00:10) 3.33 (00:10) 10.8 2.2 0.4 0.6 7.6
24-03-2020 8.8 (00:00) 5.9 (23:20) 7.4 12.5 (12:50) 5.28 (14:00) 24.4 6.2 17 1.2 0
23-03-2020 13.3 (15:10) 7.4 (00:00) 10.4 8.89 (21:30) 4.17 (15:40) 10.6 0 4 3.2 3.4
22-03-2020 10.5 (12:10) 5.4 (01:50) 8 5.83 (17:20) 1.94 (17:20) 7 0.2 0 4.4 2.4
21-03-2020 9.6 (12:10) 5.9 (00:00) 7.8 6.39 (15:10) 2.5 (14:10) 13.2 0 0 4.6 8.6
20-03-2020 9.4 (14:30) 6 (00:00) 7.7 7.5 (19:40) 3.61 (19:40) 0.6 0 0 0.2 0.4
19-03-2020 11.7 (14:30) 6 (00:00) 8.8 6.39 (13:20) 3.33 (14:50) 0 0 0 0 0
18-03-2020 12.5 (15:50) 7.6 (00:00) 10 11.67 (03:10) 5.56 (01:40) 0.2 0.2 0 0 0
17-03-2020 11.2 (17:00) 3.5 (00:00) 7.3 13.89 (17:20) 5.28 (17:20) 6.4 1.6 2.4 2.4 0
16-03-2020 9.9 (09:20) 2.4 (00:00) 6.1 8.61 (09:40) 3.89 (10:00) 15.6 1.6 2.4 8.4 3.2
15-03-2020 19.7 (14:40) 5.6 (00:00) 12.7 6.67 (14:40) 3.33 (19:00) 0.4 0 0 0 0.4
14-03-2020 21.2 (16:00) 3.2 (00:00) 12.2 5.83 (16:00) 2.22 (16:10) 0 0 0 0 0
13-03-2020 17.4 (15:30) 5.9 (05:30) 11.6 6.67 (13:20) 2.78 (13:10) 0 0 0 0 0
12-03-2020 26.7 (13:20) 5.7 (00:00) 16.2 6.11 (14:10) 2.78 (14:10) 0 0 0 0 0
11-03-2020 27.6 (16:30) 6.2 (00:00) 16.9 7.5 (01:00) 3.61 (01:00) 0 0 0 0 0
10-03-2020 22.1 (15:30) 4.7 (00:00) 13.4 6.94 (21:40) 3.33 (22:10) 0 0 0 0 0
09-03-2020 18.1 (15:50) 6.9 (00:00) 12.5 12.78 (16:40) 5.28 (16:40) 0 0 0 0 0
08-03-2020 19.2 (14:20) 0.5 (00:00) 9.9 10.56 (14:30) 4.72 (15:00) 0 0 0 0 0
07-03-2020 16.7 (16:40) 3.5 (00:00) 10.1 13.33 (10:40) 5.28 (06:40) 0 0 0 0 0
06-03-2020 12.4 (15:20) 4.5 (00:00) 8.4 16.67 (11:20) 8.33 (12:10) 0 0 0 0 0
05-03-2020 17.4 (14:20) 8.8 (00:00) 13.1 15.83 (11:30) 8.33 (12:50) 0 0 0 0 0
04-03-2020 15.6 (16:30) 9.1 (00:00) 12.4 16.11 (00:20) 7.22 (00:10) 0 0 0 0 0
03-03-2020 14.9 (16:10) 3 (00:00) 8.9 20 (16:30) 9.72 (17:20) 0 0 0 0 0
02-03-2020 16.1 (13:50) 6.3 (00:00) 11.2 23.06 (11:00) 11.94 (10:10) 1 0 0 0.8 0.2
01-03-2020 16.2 (15:30) 8.7 (00:00) 12.5 15 (15:10) 6.39 (14:10) 0 0 0 0 0
29-02-2020 20.8 (14:30) 2.3 (00:00) 11.5 13.61 (11:30) 7.22 (11:50) 0 0 0 0 0
28-02-2020 20.9 (15:30) 4.1 (00:00) 12.5 7.5 (16:10) 3.33 (15:40) 0 0 0 0 0

Gráficas

Temp. máximas Temp. mínimas Temp. medias Precipitaciones Rachas de viento máximas Velocidades máximas media en intervalos de 10 minutos

Datos horarios

Fecha y hora oficial Temperatura (ºC) Velocidad del viento (km/h) Dirección del viento Racha (km/h) Dirección de racha Precipitación (mm) Presión (hPa) Tendencia (hPa) Humedad (%)
2020-03-28 23:00:00 2.7 0 Calma 6 Sudoeste 0 -- -- 91
2020-03-28 22:00:00 3.3 3 Sudoeste 7 Sudoeste 0 -- -- 90
2020-03-28 21:00:00 4.4 2 Sudoeste 5 Sur 0 -- -- 87
2020-03-28 20:00:00 6.5 0 Calma 4 Nordeste 0 -- -- 82
2020-03-28 19:00:00 8.3 0 Calma 4 Nordeste 0 -- -- 81
2020-03-28 18:00:00 9.9 2 Nordeste 15 Este 0 -- -- 67
2020-03-28 17:00:00 10.5 4 Este 14 Este 0 -- -- 64
2020-03-28 16:00:00 10.8 0 Calma 12 Norte 0 -- -- 61
2020-03-28 15:00:00 11.1 5 Norte 13 Nordeste 0 -- -- 62
2020-03-28 14:00:00 9.6 3 Nordeste 13 Nordeste 0 -- -- 69
2020-03-28 13:00:00 9.8 4 Norte 13 Norte 0 -- -- 64
2020-03-28 12:00:00 8.3 4 Norte 13 Norte 0 -- -- 70
2020-03-28 11:00:00 7.4 3 Norte 6 Norte 0 -- -- 79
2020-03-28 10:00:00 5.9 3 Oeste 6 Oeste 0 -- -- 92
2020-03-28 09:00:00 4.1 2 Norte 5 Norte 0 -- -- 99
2020-03-28 08:00:00 1.8 0 Calma 3 Sudoeste 0 -- -- 99
2020-03-28 07:00:00 0.4 2 Sudoeste 4 Sur 0 -- -- 98
2020-03-28 06:00:00 0.1 0 Calma 2 Sur 0 -- -- 97
2020-03-28 05:00:00 1.1 0 Calma 2 Sur 0 -- -- 97
2020-03-28 04:00:00 2.1 0 Calma 2 Este 0 -- -- 97
2020-03-28 03:00:00 3.5 0 Calma 9 Nordeste 0 -- -- 98
2020-03-28 02:00:00 3.4 0 Calma 10 Este 0 -- -- 96
2020-03-28 01:00:00 4.2 5 Nordeste 10 Este 0 -- -- 97
2020-03-28 00:00:00 4.3 2 Este 9 Sudeste 0 -- -- 97
2020-03-27 23:00:00 4.4 0 Calma 8 Nordeste 0 -- -- 98
2020-03-27 22:00:00 4.3 4 Este 12 Este 0 -- -- 97
2020-03-27 21:00:00 4.1 2 Este 12 Este 0.2 -- -- 97
2020-03-27 20:00:00 4 5 Este 18 Este 0.4 -- -- 97
2020-03-27 19:00:00 4 6 Este 14 Este 1.2 -- -- 97
2020-03-27 18:00:00 3.7 6 Este 21 Nordeste 1.6 -- -- 96
2020-03-27 17:00:00 3.8 7 Este 19 Este 1.8 -- -- 96
2020-03-27 16:00:00 3.7 6 Este 18 Este 1.6 -- -- 96
2020-03-27 15:00:00 4 5 Este 16 Sudeste 1.2 -- -- 96
2020-03-27 14:00:00 3.7 6 Este 14 Sudeste 1.8 -- -- 95
2020-03-27 13:00:00 3.7 6 Este 19 Sudeste 2.2 -- -- 95
2020-03-27 12:00:00 3.9 4 Este 13 Este 1.8 -- -- 95
2020-03-27 11:00:00 3.8 4 Este 16 Este 1 -- -- 96
2020-03-27 10:00:00 3.6 6 Este 17 Sudeste 2.8 -- -- 95
2020-03-27 09:00:00 3.7 4 Este 17 Este 0.8 -- -- 95
2020-03-27 08:00:00 3.6 2 Este 16 Nordeste 0 -- -- 93
2020-03-27 07:00:00 3.7 7 Este 15 Este 0 -- -- 91
2020-03-27 06:00:00 3.6 5 Este 17 Este 0 -- -- 88
2020-03-27 05:00:00 3.7 6 Este 15 Este 0 -- -- 89
2020-03-27 04:00:00 4 5 Este 15 Nordeste 0 -- -- 88
2020-03-27 03:00:00 4.2 6 Este 14 Nordeste 0 -- -- 89
2020-03-27 02:00:00 4.6 2 Este 9 Este 0 -- -- 90
2020-03-27 01:00:00 4.8 2 Este 12 Este 0 -- -- 89
2020-03-27 00:00:00 4.7 3 Este 13 Este 0 -- -- 90
2020-03-26 23:00:00 4.3 4 Este 17 Este 0 -- -- 90
2020-03-26 22:00:00 3.6 2 Este 9 Este 0 -- -- 87
2020-03-26 21:00:00 4.8 4 Este 13 Este 0 -- -- 83
2020-03-26 20:00:00 5.9 5 Este 22 Nordeste 0 -- -- 79
2020-03-26 19:00:00 7.8 9 Este 20 Nordeste 0 -- -- 73
2020-03-26 18:00:00 10.2 4 Nordeste 13 Nordeste 0 -- -- 60
2020-03-26 17:00:00 10.6 5 Nordeste 17 Norte 0 -- -- 55
2020-03-26 16:00:00 10.9 8 Nordeste 22 Norte 0 -- -- 55
2020-03-26 15:00:00 11.4 9 Noroeste 26 Noroeste 0 -- -- 52
2020-03-26 14:00:00 11.1 8 Norte 27 Norte 0 -- -- 58
2020-03-26 13:00:00 10.9 9 Norte 28 Noroeste 0 -- -- 62
2020-03-26 12:00:00 10.2 9 Noroeste 23 Noroeste 0 -- -- 68
2020-03-26 11:00:00 8.9 9 Norte 24 Norte 0 -- -- 82
2020-03-26 10:00:00 7.7 6 Norte 23 Noroeste 0 -- -- 88
2020-03-26 09:00:00 7.2 8 Noroeste 19 Norte 0 -- -- 96
2020-03-26 08:00:00 5.7 8 Oeste 18 Oeste 0 -- -- 98
2020-03-26 07:00:00 5.3 6 Oeste 15 Oeste 0 -- -- 98
2020-03-26 06:00:00 5.2 0 Calma 10 Oeste 0 -- -- 97
2020-03-26 05:00:00 5.4 2 Oeste 16 Oeste 0 -- -- 97
2020-03-26 04:00:00 5.4 4 Sudoeste 14 Oeste 0 -- -- 97
2020-03-26 03:00:00 5.4 3 Oeste 8 Oeste 0 -- -- 97
2020-03-26 02:00:00 5.4 0 Calma 9 Sur 0 -- -- 97
2020-03-26 01:00:00 5.2 3 Sur 17 Sur 0.4 -- -- 97
2020-03-26 00:00:00 5.5 4 Sur 11 Sudoeste 3.8 -- -- 97
2020-03-25 23:00:00 5.5 2 Sur 6 Sur 1.2 -- -- 97
2020-03-25 22:00:00 5.1 2 Sudoeste 7 Sudoeste 0.2 -- -- 97
2020-03-25 21:00:00 5.1 2 Sudeste 5 Sur 0 -- -- 96
2020-03-25 20:00:00 5.1 2 Sur 12 Sur 0 -- -- 95
2020-03-25 19:00:00 5.5 3 Este 18 Nordeste 2.4 -- -- 95
2020-03-25 18:00:00 6.7 7 Este 19 Este 0 -- -- 88
2020-03-25 17:00:00 8.2 5 Este 19 Este 0 -- -- 86
2020-03-25 16:00:00 7.5 4 Sudeste 17 Sudeste 0.4 -- -- 91
2020-03-25 15:00:00 8.6 6 Este 12 Este 0 -- -- 81
2020-03-25 14:00:00 7.9 4 Este 9 Este 0 -- -- 86
2020-03-25 13:00:00 6.5 2 Sur 4 Sur 0.2 -- -- 90
2020-03-25 12:00:00 5.9 0 Calma 8 Este 0 -- -- 93
2020-03-25 11:00:00 5.7 2 Este 6 Nordeste 0 -- -- 94
2020-03-25 10:00:00 5.4 0 Calma 6 Norte 0.2 -- -- 96
2020-03-25 09:00:00 4.9 2 Nordeste 7 Nordeste 0 -- -- 96
2020-03-25 08:00:00 4.5 0 Calma 4 Noroeste 0 -- -- 97
2020-03-25 07:00:00 4.4 0 Calma 9 Nordeste 0.2 -- -- 96
2020-03-25 06:00:00 4.7 0 Calma 4 Este 0 -- -- 97
2020-03-25 05:00:00 4.7 0 Calma 6 Noroeste 0.2 -- -- 96
2020-03-25 04:00:00 4.7 2 Norte 6 Noroeste 0.2 -- -- 96
2020-03-25 03:00:00 5.1 3 Nordeste 13 Nordeste 0.6 -- -- 95
2020-03-25 02:00:00 5.3 2 Este 15 Nordeste 1.2 -- -- 94
2020-03-25 01:00:00 5.7 6 Este 26 Este 0 -- -- 90
2020-03-25 00:00:00 5.9 10 Este 30 Nordeste 0 -- -- 89
2020-03-24 23:00:00 6 15 Este 40 Nordeste 0 -- -- 89
2020-03-24 22:00:00 6.2 13 Este 33 Nordeste 0 -- -- 89
2020-03-24 21:00:00 6.3 15 Este 35 Nordeste 0 -- -- 89
2020-03-24 20:00:00 6.2 18 Este 39 Este 0 -- -- 88
2020-03-24 19:00:00 6.7 14 Este 31 Nordeste 0 -- -- 92
2020-03-24 18:00:00 6.8 15 Este 36 Este 0.2 -- -- 93
2020-03-24 17:00:00 7.1 14 Nordeste 41 Este 0 -- -- 95
2020-03-24 16:00:00 7.4 16 Este 39 Nordeste 0.2 -- -- 96
2020-03-24 15:00:00 7.6 18 Este 40 Nordeste 0.2 -- -- 96
2020-03-24 14:00:00 8 19 Este 41 Nordeste 0 -- -- 96
2020-03-24 13:00:00 8.2 15 Este 45 Este 0.6 -- -- 96
2020-03-24 12:00:00 8.6 15 Este 38 Nordeste 0.4 -- -- 96
2020-03-24 11:00:00 8.6 17 Este 37 Nordeste 0.2 -- -- 95
2020-03-24 10:00:00 8 10 Este 28 Este 1.2 -- -- 96
2020-03-24 09:00:00 7.6 11 Este 28 Nordeste 5 -- -- 96
2020-03-24 08:00:00 7.7 8 Este 25 Este 5.4 -- -- 96
2020-03-24 07:00:00 7.8 9 Este 31 Nordeste 4.8 -- -- 96
2020-03-24 06:00:00 8 9 Este 29 Nordeste 3.2 -- -- 96
2020-03-24 05:00:00 8.2 9 Este 28 Este 0.8 -- -- 95
2020-03-24 04:00:00 8.1 8 Este 26 Nordeste 1.8 -- -- 95
2020-03-24 03:00:00 8.3 9 Este 35 Este 0.4 -- -- 94
2020-03-24 02:00:00 8.6 9 Este 28 Este 0 -- -- 92
2020-03-24 01:00:00 8.8 10 Este 30 Este 0 -- -- 92
2020-03-24 00:00:00 8.8 13 Este 27 Nordeste 0 -- -- 94
2020-03-23 23:00:00 8.5 12 Este 26 Este 0.2 -- -- 95
2020-03-23 22:00:00 8.5 7 Este 32 Este 0.2 -- -- 95
2020-03-23 21:00:00 8.4 6 Este 29 Este 2 -- -- 95
2020-03-23 20:00:00 8.6 9 Este 24 Nordeste 0.6 -- -- 95
2020-03-23 19:00:00 9 10 Este 26 Este 0.4 -- -- 94
2020-03-23 18:00:00 9.7 13 Este 28 Nordeste 0 -- -- 91
2020-03-23 17:00:00 9.8 11 Este 29 Este 1.4 -- -- 94
2020-03-23 16:00:00 10.5 7 Este 30 Este 1.4 -- -- 86
2020-03-23 15:00:00 13.2 6 Este 17 Este 0 -- -- 77
2020-03-23 14:00:00 11.2 4 Este 12 Sur 0 -- -- 85
2020-03-23 13:00:00 9.8 5 Sudeste 17 Sur 0.4 -- -- 91
2020-03-23 12:00:00 8.3 6 Sur 17 Sudeste 0.8 -- -- 93
2020-03-23 11:00:00 8.6 8 Sudeste 22 Sudeste 3.2 -- -- 95
2020-03-23 10:00:00 9 4 Este 12 Nordeste 0 -- -- 97
2020-03-23 09:00:00 8.3 2 Este 12 Sudeste 0 -- -- 98
2020-03-23 08:00:00 7.8 2 Este 10 Sudeste 0 -- -- 97
2020-03-23 07:00:00 7.8 2 Este 10 Este 0 -- -- 98
2020-03-23 06:00:00 7.8 2 Este 12 Este 0 -- -- 97
2020-03-23 05:00:00 7.7 4 Este 10 Este 0 -- -- 97
2020-03-23 04:00:00 7.9 3 Este 9 Este 0 -- -- 97
2020-03-23 03:00:00 7.8 0 Calma 6 Este 0 -- -- 97
2020-03-23 02:00:00 7.6 0 Calma 8 Nordeste 0 -- -- 97
2020-03-23 01:00:00 7.5 0 Calma 7 Este 0 -- -- 97
2020-03-23 00:00:00 7.4 0 Calma 3 Sur 0 -- -- 97
2020-03-22 23:00:00 7.2 0 Calma 2 Nordeste 0 -- -- 97
2020-03-22 22:00:00 7.1 0 Calma 4 Sur 0.2 -- -- 96
2020-03-22 21:00:00 7.3 2 Sur 5 Sudeste 0.4 -- -- 96
2020-03-22 20:00:00 7.5 2 Sudeste 16 Este 1.8 -- -- 95
2020-03-22 19:00:00 8.1 5 Este 18 Este 0 -- -- 96
2020-03-22 18:00:00 8.4 5 Este 21 Este 0.2 -- -- 96
2020-03-22 17:00:00 8.4 4 Este 18 Sudeste 0.4 -- -- 95
2020-03-22 16:00:00 8.5 4 Este 16 Este 0.4 -- -- 94
2020-03-22 15:00:00 8.8 4 Este 14 Este 2.6 -- -- 94
2020-03-22 14:00:00 9.4 4 Este 19 Este 0.8 -- -- 92
2020-03-22 13:00:00 9.8 6 Este 18 Sudeste 0 -- -- 87
2020-03-22 12:00:00 10.4 6 Este 16 Nordeste 0 -- -- 83
2020-03-22 11:00:00 9.3 6 Este 16 Sudeste 0 -- -- 91
2020-03-22 10:00:00 8 4 Este 10 Este 0 -- -- 98
2020-03-22 09:00:00 6.6 0 Calma 3 Nordeste 0 -- -- 98
2020-03-22 08:00:00 6.1 0 Calma 3 Norte 0 -- -- 97
2020-03-22 07:00:00 6.1 0 Calma 2 Norte 0 -- -- 97
2020-03-22 06:00:00 6 0 Calma 4 Norte 0 -- -- 97
2020-03-22 05:00:00 6.1 0 Calma 3 Nordeste 0 -- -- 97
2020-03-22 04:00:00 6 0 Calma 2 Norte 0 -- -- 97
2020-03-22 03:00:00 5.8 0 Calma 3 Oeste 0.2 -- -- 97
2020-03-22 02:00:00 5.4 0 Calma 2 Sudoeste 0 -- -- 96
2020-03-22 01:00:00 5.6 0 Calma 2 Sur 0 -- -- 96
2020-03-22 00:00:00 5.9 0 Calma 6 Norte 0.2 -- -- 96
2020-03-21 23:00:00 5.9 2 Oeste 5 Oeste 0.4 -- -- 96
2020-03-21 22:00:00 6 0 Calma 6 Nordeste 0 -- -- 96
2020-03-21 21:00:00 6.1 3 Nordeste 8 Noroeste 2.2 -- -- 96
2020-03-21 20:00:00 6.1 3 Noroeste 18 Oeste 1.8 -- -- 95
2020-03-21 19:00:00 6.3 8 Oeste 18 Oeste 4 -- -- 95
2020-03-21 18:00:00 7.3 5 Oeste 17 Nordeste 4.6 -- -- 91
2020-03-21 17:00:00 8.4 6 Este 21 Nordeste 0 -- -- 94
2020-03-21 16:00:00 8.8 8 Este 23 Nordeste 0 -- -- 91
2020-03-21 15:00:00 9 6 Este 21 Este 0 -- -- 90
2020-03-21 14:00:00 8.9 8 Este 21 Este 0 -- -- 93
2020-03-21 13:00:00 9.3 6 Este 18 Sudeste 0 -- -- 89
2020-03-21 12:00:00 9.4 8 Este 18 Norte 0 -- -- 89
2020-03-21 11:00:00 8.4 6 Este 19 Nordeste 0 -- -- 94
2020-03-21 10:00:00 8.1 5 Este 13 Sudeste 0 -- -- 96
2020-03-21 09:00:00 7.8 4 Este 14 Este 0 -- -- 96
2020-03-21 08:00:00 7.4 3 Este 9 Este 0 -- -- 96
2020-03-21 07:00:00 7.2 2 Este 10 Este 0 -- -- 96
2020-03-21 06:00:00 7.1 3 Este 14 Este 0 -- -- 96
2020-03-21 05:00:00 7.2 3 Este 11 Nordeste 0 -- -- 95
2020-03-21 04:00:00 7.4 4 Este 13 Este 0 -- -- 95
2020-03-21 03:00:00 7.3 4 Este 9 Nordeste 0 -- -- 96
2020-03-21 02:00:00 7.5 4 Este 12 Nordeste 0 -- -- 96
2020-03-21 01:00:00 7.6 4 Este 10 Sudeste 0 -- -- 96
2020-03-21 00:00:00 7.5 0 Calma 13 Nordeste 0.2 -- -- 96
2020-03-20 23:00:00 7.5 3 Este 14 Nordeste 0.2 -- -- 95
2020-03-20 22:00:00 7.9 3 Este 19 Este 0 -- -- 92
2020-03-20 21:00:00 8.1 9 Este 20 Este 0 -- -- 89
2020-03-20 20:00:00 8.2 8 Este 27 Nordeste 0 -- -- 87
2020-03-20 19:00:00 8.5 10 Este 22 Este 0 -- -- 89
2020-03-20 18:00:00 8.6 8 Este 17 Este 0 -- -- 89
2020-03-20 17:00:00 8.4 8 Este 20 Nordeste 0.2 -- -- 91
2020-03-20 16:00:00 8.7 7 Este 21 Este 0 -- -- 90
2020-03-20 15:00:00 9.3 6 Este 17 Nordeste 0 -- -- 86
2020-03-20 14:00:00 9.2 4 Este 16 Este 0 -- -- 87
2020-03-20 13:00:00 8.8 5 Este 23 Sudeste 0 -- -- 90
2020-03-20 12:00:00 9 8 Este 21 Este 0 -- -- 87
2020-03-20 11:00:00 8.7 8 Este 23 Nordeste 0 -- -- 89
2020-03-20 10:00:00 8.8 10 Este 24 Nordeste 0 -- -- 89
2020-03-20 09:00:00 8.2 10 Este 27 Nordeste 0 -- -- 89
2020-03-20 08:00:00 7.5 8 Este 21 Nordeste 0 -- -- 92
2020-03-20 07:00:00 7.5 5 Este 15 Nordeste 0 -- -- 93
2020-03-20 06:00:00 7.8 8 Este 18 Nordeste 0 -- -- 92
2020-03-20 05:00:00 7.7 7 Este 17 Este 0 -- -- 94
2020-03-20 04:00:00 7.8 3 Este 13 Nordeste 0 -- -- 96
2020-03-20 03:00:00 7.9 0 Calma 6 Nordeste 0 -- -- 96
2020-03-20 02:00:00 7.6 2 Sudeste 6 Sudeste 0 -- -- 96
2020-03-20 01:00:00 6.9 0 Calma 2 Sudeste 0 -- -- 96
2020-03-20 00:00:00 6 0 Calma 4 Este 0 -- -- 93
2020-03-19 23:00:00 7 0 Calma 6 Este 0 -- -- 90
2020-03-19 22:00:00 8.2 3 Este 17 Este 0 -- -- 90
2020-03-19 21:00:00 8.7 4 Este 12 Este 0 -- -- 92
2020-03-19 20:00:00 8.7 3 Este 15 Este 0 -- -- 94
2020-03-19 19:00:00 9 4 Este 15 Este 0 -- -- 93
2020-03-19 18:00:00 9.1 4 Este 20 Este 0 -- -- 93
2020-03-19 17:00:00 10.3 6 Este 20 Este 0 -- -- 86
2020-03-19 16:00:00 11 8 Este 21 Este 0 -- -- 79
2020-03-19 15:00:00 11 11 Este 22 Nordeste 0 -- -- 80
2020-03-19 14:00:00 11.6 9 Este 23 Este 0 -- -- 76
2020-03-19 13:00:00 11 10 Este 20 Este 0 -- -- 84
2020-03-19 12:00:00 9.9 8 Este 23 Este 0 -- -- 87
2020-03-19 11:00:00 10 7 Este 20 Este 0 -- -- 86
2020-03-19 10:00:00 9 8 Este 21 Este 0 -- -- 90
2020-03-19 09:00:00 8.5 5 Este 14 Este 0 -- -- 92
2020-03-19 08:00:00 7.9 4 Este 12 Sudeste 0 -- -- 94
2020-03-19 07:00:00 7.6 0 Calma 11 Nordeste 0 -- -- 94
2020-03-19 06:00:00 7.7 3 Nordeste 4 Este 0 -- -- 95
2020-03-19 05:00:00 7.6 2 Nordeste 5 Este 0 -- -- 94
2020-03-19 04:00:00 7.5 0 Calma 4 Norte 0 -- -- 93
2020-03-19 03:00:00 7.4 0 Calma 9 Este 0 -- -- 93
2020-03-19 02:00:00 7.2 0 Calma 10 Nordeste 0 -- -- 91
2020-03-19 01:00:00 7.4 0 Calma 5 Oeste 0 -- -- 89
2020-03-19 00:00:00 7.8 4 Este 9 Nordeste 0 -- -- 91
2020-03-18 23:00:00 7.7 0 Calma 10 Nordeste 0 -- -- 89
2020-03-18 22:00:00 8.1 5 Nordeste 14 Este 0 -- -- 89
2020-03-18 21:00:00 8 6 Nordeste 17 Este 0 -- -- 87
2020-03-18 20:00:00 7.7 5 Este 26 Nordeste 0 -- -- 86
2020-03-18 19:00:00 8.9 10 Nordeste 27 Este 0 -- -- 80
2020-03-18 18:00:00 10.2 12 Este 30 Este 0 -- -- 76
2020-03-18 17:00:00 11.6 12 Este 32 Nordeste 0 -- -- 70
2020-03-18 16:00:00 12 17 Nordeste 32 Nordeste 0 -- -- 70
2020-03-18 15:00:00 12 13 Nordeste 30 Este 0 -- -- 72
2020-03-18 14:00:00 11.6 14 Nordeste 29 Nordeste 0 -- -- 76
2020-03-18 13:00:00 10 13 Este 27 Nordeste 0 -- -- 84
2020-03-18 12:00:00 9.8 11 Este 27 Nordeste 0 -- -- 86
2020-03-18 11:00:00 8.7 9 Nordeste 24 Este 0 -- -- 91
2020-03-18 10:00:00 8.5 14 Este 26 Este 0 -- -- 89
2020-03-18 09:00:00 8.4 8 Este 31 Este 0 -- -- 95
2020-03-18 08:00:00 8.7 6 Este 27 Este 0 -- -- 96
2020-03-18 07:00:00 8.7 8 Este 29 Nordeste 0 -- -- 95
2020-03-18 06:00:00 8.8 13 Este 29 Este 0 -- -- 94
2020-03-18 05:00:00 8.9 12 Este 34 Nordeste 0 -- -- 92
2020-03-18 04:00:00 8.9 11 Este 42 Este 0 -- -- 91
2020-03-18 03:00:00 9 18 Este 40 Este 0 -- -- 91
2020-03-18 02:00:00 9 18 Este 40 Nordeste 0.2 -- -- 91
2020-03-18 01:00:00 9.1 17 Este 35 Nordeste 0 -- -- 92
2020-03-18 00:00:00 9.5 14 Nordeste 32 Este 0 -- -- 92
2020-03-17 23:00:00 9.4 15 Este 37 Este 0 -- -- 93
2020-03-17 22:00:00 9.6 13 Este 31 Nordeste 0 -- -- 93
2020-03-17 21:00:00 10 16 Nordeste 33 Este 0 -- -- 94
2020-03-17 20:00:00 10.2 14 Nordeste 36 Nordeste 0 -- -- 95
2020-03-17 19:00:00 10.6 16 Este 37 Este 0 -- -- 93
2020-03-17 18:00:00 10.7 13 Este 50 Este 0 -- -- 95
2020-03-17 17:00:00 11.2 18 Este 44 Este 0 -- -- 95
2020-03-17 16:00:00 10.5 9 Este 23 Este 0 -- -- 97
2020-03-17 15:00:00 9.1 0 Calma 7 Norte 0.2 -- -- 97
2020-03-17 14:00:00 8.6 2 Norte 5 Norte 0.2 -- -- 97
2020-03-17 13:00:00 8 2 Este 7 Este 2 -- -- 96
2020-03-17 12:00:00 7.6 2 Este 13 Este 2 -- -- 96
2020-03-17 11:00:00 7.4 4 Este 14 Este 0.4 -- -- 96
2020-03-17 10:00:00 7.3 4 Este 12 Sudeste 0 -- -- 97
2020-03-17 09:00:00 6.7 5 Sudeste 14 Sudeste 0 -- -- 97
2020-03-17 08:00:00 6.4 3 Sudeste 10 Sudeste 0 -- -- 97
2020-03-17 07:00:00 6.3 0 Calma 8 Sudeste 0 -- -- 97
2020-03-17 06:00:00 5.5 0 Calma 5 Sudeste 0.8 -- -- 97
2020-03-17 05:00:00 5.3 2 Este 9 Sudeste 0.8 -- -- 97
2020-03-17 04:00:00 4.9 0 Calma 7 Este 0 -- -- 97
2020-03-17 03:00:00 4.4 0 Calma 4 Sudeste 0 -- -- 97
2020-03-17 02:00:00 3.7 0 Calma 2 Sudoeste 0 -- -- 96
2020-03-17 01:00:00 3.8 0 Calma 4 Oeste 0 -- -- 96
2020-03-17 00:00:00 3.7 0 Calma 4 Oeste 0 -- -- 95
2020-03-16 23:00:00 3.6 0 Calma 3 Noroeste 0.2 -- -- 96
2020-03-16 22:00:00 3.4 0 Calma 3 Sudoeste 0 -- -- 96
2020-03-16 21:00:00 3.1 0 Calma 6 Oeste 0.4 -- -- 96
2020-03-16 20:00:00 2.8 0 Calma 7 Norte 1.2 -- -- 95
2020-03-16 19:00:00 2.4 0 Calma 12 Norte 1.4 -- -- 95
2020-03-16 18:00:00 2.7 3 Norte 11 Norte 1.8 -- -- 93
2020-03-16 17:00:00 3.9 4 Norte 11 Noroeste 0.6 -- -- 94
2020-03-16 16:00:00 4.1 4 Noroeste 13 Oeste 0.6 -- -- 95
2020-03-16 15:00:00 4.2 3 Norte 15 Nordeste 1.6 -- -- 94
2020-03-16 14:00:00 3.2 4 Oeste 14 Noroeste 2.8 -- -- 93
2020-03-16 13:00:00 4.3 4 Noroeste 18 Noroeste 1 -- -- 94
2020-03-16 12:00:00 4.2 6 Noroeste 24 Oeste 1.4 -- -- 92
2020-03-16 11:00:00 5 4 Noroeste 28 Oeste 1 -- -- 93
2020-03-16 10:00:00 6.2 14 Oeste 31 Oeste 0 -- -- 87
2020-03-16 09:00:00 9.5 4 Sur 15 Sur 0 -- -- 95
2020-03-16 08:00:00 8.8 3 Este 10 Sudeste 0 -- -- 95
2020-03-16 07:00:00 8.2 3 Sudeste 10 Sudeste 0 -- -- 95
2020-03-16 06:00:00 7.7 2 Sudeste 4 Sur 0 -- -- 93
2020-03-16 05:00:00 8.5 0 Calma 5 Este 0 -- -- 93
2020-03-16 04:00:00 8.9 0 Calma 4 Sudeste 0.2 -- -- 93
2020-03-16 03:00:00 9 0 Calma 8 Sudoeste 1 -- -- 93
2020-03-16 02:00:00 8.9 3 Sur 8 Sudeste 0.2 -- -- 93
2020-03-16 01:00:00 9.1 3 Sudeste 11 Sur 0.2 -- -- 91
2020-03-16 00:00:00 9.6 3 Sudeste 7 Sur 0.4 -- -- 88
2020-03-15 23:00:00 9.9 0 Calma 7 Sudeste 0 -- -- 80
2020-03-15 22:00:00 10.1 0 Calma 16 Sudeste 0 -- -- 78
2020-03-15 21:00:00 10.5 4 Sudeste 18 Este 0 -- -- 74
2020-03-15 20:00:00 11.5 8 Sur 20 Sur 0 -- -- 69
2020-03-15 19:00:00 12.8 12 Sur 22 Sur 0 -- -- 62
2020-03-15 18:00:00 15.7 9 Sudeste 22 Sudeste 0 -- -- 54
2020-03-15 17:00:00 17.8 8 Sudeste 22 Sudeste 0 -- -- 46
2020-03-15 16:00:00 19.1 9 Sudeste 24 Sudeste 0 -- -- 45
2020-03-15 15:00:00 19.6 8 Sudeste 24 Este 0 -- -- 42
2020-03-15 14:00:00 19.1 7 Sudeste 19 Sudeste 0 -- -- 40
2020-03-15 13:00:00 17.9 9 Sur 20 Sudeste 0 -- -- 41
2020-03-15 12:00:00 16.7 6 Sudeste 23 Sur 0 -- -- 46
2020-03-15 11:00:00 14.2 3 Nordeste 9 Nordeste 0 -- -- 65
2020-03-15 10:00:00 9.9 3 Nordeste 7 Este 0 -- -- 87
2020-03-15 09:00:00 6.7 0 Calma 2 Oeste 0 -- -- 95
2020-03-15 08:00:00 5.6 0 Calma 4 Sudoeste 0 -- -- 93
2020-03-15 07:00:00 6.7 0 Calma 5 Sudoeste 0 -- -- 93
2020-03-15 06:00:00 7.8 2 Sudoeste 5 Sudoeste 0 -- -- 93
2020-03-15 05:00:00 8.2 0 Calma 4 Sudoeste 0 -- -- 94
2020-03-15 04:00:00 8.8 3 Sudoeste 7 Sur 0 -- -- 93
2020-03-15 03:00:00 9.5 3 Sur 7 Sudeste 0 -- -- 94
2020-03-15 02:00:00 9.1 0 Calma 6 Sur 0 -- -- 95
2020-03-15 01:00:00 7.5 0 Calma 5 Sur 0 -- -- 90
2020-03-15 00:00:00 8.2 0 Calma 5 Sudoeste 0 -- -- 88
2020-03-14 23:00:00 9.4 2 Sur 8 Sur 0 -- -- 86
2020-03-14 22:00:00 10.7 2 Sudeste 12 Este 0 -- -- 85
2020-03-14 21:00:00 12.2 4 Sudeste 12 Sudeste 0 -- -- 80
2020-03-14 20:00:00 14 4 Sudeste 13 Sudeste 0 -- -- 71
2020-03-14 19:00:00 16.2 6 Sur 16 Sudeste 0 -- -- 62
2020-03-14 18:00:00 18.7 6 Sudeste 18 Sudeste 0 -- -- 51
2020-03-14 17:00:00 20.2 7 Sudeste 20 Sur 0 -- -- 48
2020-03-14 16:00:00 21.2 6 Sur 21 Sur 0 -- -- 45
2020-03-14 15:00:00 20.5 5 Este 16 Este 0 -- -- 48
2020-03-14 14:00:00 19.3 4 Nordeste 15 Este 0 -- -- 48
2020-03-14 13:00:00 18.3 5 Nordeste 15 Este 0 -- -- 50
2020-03-14 12:00:00 17 3 Este 14 Este 0 -- -- 53
2020-03-14 11:00:00 14.3 6 Este 12 Nordeste 0 -- -- 58
2020-03-14 10:00:00 11 0 Calma 4 Noroeste 0 -- -- 73
2020-03-14 09:00:00 6.5 0 Calma 6 Sur 0 -- -- 96
2020-03-14 08:00:00 3.2 0 Calma 4 Sudoeste 0 -- -- 94
2020-03-14 07:00:00 3.5 0 Calma 4 Sudoeste 0 -- -- 92
2020-03-14 06:00:00 4.2 2 Sudoeste 4 Sudoeste 0 -- -- 92
2020-03-14 05:00:00 5.4 0 Calma 6 Sudoeste 0 -- -- 90
2020-03-14 04:00:00 6.4 4 Sudoeste 8 Sudoeste 0 -- -- 91
2020-03-14 03:00:00 7 2 Sudoeste 6 Sudoeste 0 -- -- 93
2020-03-14 02:00:00 6.8 0 Calma 3 Sudoeste 0 -- -- 90
2020-03-14 01:00:00 7.4 0 Calma 4 Oeste 0 -- -- 91
2020-03-14 00:00:00 7.6 0 Calma 3 Sudoeste 0 -- -- 89
2020-03-13 23:00:00 8.8 2 Sur 5 Sur 0 -- -- 90
2020-03-13 22:00:00 9.3 0 Calma 5 Este 0 -- -- 87
2020-03-13 21:00:00 9.8 0 Calma 5 Este 0 -- -- 84
2020-03-13 20:00:00 10.9 3 Este 15 Nordeste 0 -- -- 81
2020-03-13 19:00:00 12.4 6 Este 20 Este 0 -- -- 77
2020-03-13 18:00:00 14.1 6 Este 21 Este 0 -- -- 71
2020-03-13 17:00:00 16.3 9 Este 21 Este 0 -- -- 60
2020-03-13 16:00:00 17 8 Este 23 Este 0 -- -- 58
2020-03-13 15:00:00 17 9 Este 22 Este 0 -- -- 58
2020-03-13 14:00:00 16 10 Este 24 Este 0 -- -- 61
2020-03-13 13:00:00 16 9 Este 21 Nordeste 0 -- -- 64
2020-03-13 12:00:00 14.1 9 Este 21 Nordeste 0 -- -- 69
2020-03-13 11:00:00 10.9 5 Este 18 Sudeste 0 -- -- 85
2020-03-13 10:00:00 9.5 6 Este 17 Este 0 -- -- 94
2020-03-13 09:00:00 8.7 6 Este 21 Sudeste 0 -- -- 94
2020-03-13 08:00:00 7.7 7 Sudeste 16 Este 0 -- -- 92
2020-03-13 07:00:00 7.2 3 Sudeste 8 Sudeste 0 -- -- 87
2020-03-13 06:00:00 6.2 0 Calma 4 Sudeste 0 -- -- 87
2020-03-13 05:00:00 6.1 0 Calma 6 Sudoeste 0 -- -- 83
2020-03-13 04:00:00 6.6 0 Calma 5 Sur 0 -- -- 80
2020-03-13 03:00:00 6.7 3 Sudoeste 5 Sur 0 -- -- 79
2020-03-13 02:00:00 7.1 0 Calma 4 Sudoeste 0 -- -- 76
2020-03-13 01:00:00 8 0 Calma 7 Sudoeste 0 -- -- 73
2020-03-13 00:00:00 9.1 0 Calma 5 Sudoeste 0 -- -- 68
2020-03-12 23:00:00 10.3 2 Sudoeste 3 Sudoeste 0 -- -- 64
2020-03-12 22:00:00 11.5 3 Oeste 5 Sudoeste 0 -- -- 61
2020-03-12 21:00:00 14.4 3 Oeste 8 Sudoeste 0 -- -- 57
2020-03-12 20:00:00 17.5 6 Sur 14 Sur 0 -- -- 49
2020-03-12 19:00:00 20.7 8 Sur 14 Sur 0 -- -- 42
2020-03-12 18:00:00 23.6 6 Sudeste 14 Sudeste 0 -- -- 35
2020-03-12 17:00:00 25.3 6 Sur 18 Sudoeste 0 -- -- 30
2020-03-12 16:00:00 26.3 6 Sudoeste 17 Oeste 0 -- -- 29
2020-03-12 15:00:00 26.7 7 Sudoeste 22 Sudoeste 0 -- -- 29
2020-03-12 14:00:00 26.6 9 Sur 19 Oeste 0 -- -- 31
2020-03-12 13:00:00 25.9 5 Oeste 15 Este 0 -- -- 30
2020-03-12 12:00:00 23.7 6 Nordeste 13 Nordeste 0 -- -- 40
2020-03-12 11:00:00 21.4 5 Nordeste 9 Nordeste 0 -- -- 44
2020-03-12 10:00:00 16.7 2 Norte 6 Noroeste 0 -- -- 58
2020-03-12 09:00:00 10.1 0 Calma 8 Sur 0 -- -- 88
2020-03-12 08:00:00 7 0 Calma 9 Sur 0 -- -- 86
2020-03-12 07:00:00 5.8 0 Calma 4 Sudoeste 0 -- -- 90
2020-03-12 06:00:00 6.2 0 Calma 3 Oeste 0 -- -- 89
2020-03-12 05:00:00 6.4 0 Calma 6 Sur 0 -- -- 89
2020-03-12 04:00:00 6.6 0 Calma 5 Sudoeste 0 -- -- 88
2020-03-12 03:00:00 7.2 2 Sur 3 Sudoeste 0 -- -- 88
2020-03-12 02:00:00 7.7 0 Calma 3 Sudoeste 0 -- -- 86
2020-03-12 01:00:00 8.4 0 Calma 3 Oeste 0 -- -- 83
2020-03-12 00:00:00 9.2 0 Calma 3 Sudoeste 0 -- -- 80
2020-03-11 23:00:00 10.3 0 Calma 3 Oeste 0 -- -- 74
2020-03-11 22:00:00 12 2 Sudoeste 4 Sudoeste 0 -- -- 70
2020-03-11 21:00:00 13.9 0 Calma 4 Sur 0 -- -- 64
2020-03-11 20:00:00 16.7 0 Calma 7 Sur 0 -- -- 55
2020-03-11 19:00:00 21.4 4 Sudeste 15 Este 0 -- -- 44
2020-03-11 18:00:00 25.2 6 Este 17 Sudeste 0 -- -- 35
2020-03-11 17:00:00 27.2 2 Noroeste 12 Sudoeste 0 -- -- 28
2020-03-11 16:00:00 27.1 6 Nordeste 17 Norte 0 -- -- 29
2020-03-11 15:00:00 27.5 4 Norte 14 Nordeste 0 -- -- 29
2020-03-11 14:00:00 26.3 6 Nordeste 15 Este 0 -- -- 32
2020-03-11 13:00:00 25.2 4 Este 12 Este 0 -- -- 35
2020-03-11 12:00:00 24.2 5 Noroeste 10 Este 0 -- -- 37
2020-03-11 11:00:00 22.2 3 Noroeste 16 Oeste 0 -- -- 42
2020-03-11 10:00:00 18.7 2 Oeste 9 Sudoeste 0 -- -- 50
2020-03-11 09:00:00 11.2 3 Sur 8 Sudoeste 0 -- -- 72
2020-03-11 08:00:00 6.3 3 Sudoeste 6 Sudoeste 0 -- -- 80
2020-03-11 07:00:00 7.1 3 Sudoeste 7 Sudoeste 0 -- -- 75
2020-03-11 06:00:00 8.9 3 Sudoeste 7 Oeste 0 -- -- 69
2020-03-11 05:00:00 9 3 Oeste 8 Sudoeste 0 -- -- 68
2020-03-11 04:00:00 9.6 3 Sudoeste 5 Sudoeste 0 -- -- 65
2020-03-11 03:00:00 12.1 3 Sudoeste 22 Oeste 0 -- -- 57
2020-03-11 02:00:00 14.4 11 Oeste 24 Oeste 0 -- -- 50
2020-03-11 01:00:00 14.3 13 Oeste 27 Oeste 0 -- -- 49
2020-03-11 00:00:00 14.4 8 Oeste 19 Sudoeste 0 -- -- 50
2020-03-10 23:00:00 15.4 9 Oeste 22 Sudoeste 0 -- -- 47
2020-03-10 22:00:00 16.1 11 Oeste 25 Oeste 0 -- -- 45
2020-03-10 21:00:00 13.2 4 Sudoeste 13 Sudoeste 0 -- -- 55
2020-03-10 20:00:00 14.8 5 Sudoeste 11 Sudoeste 0 -- -- 51
2020-03-10 19:00:00 18 3 Oeste 13 Oeste 0 -- -- 45
2020-03-10 18:00:00 20.8 3 Noroeste 18 Oeste 0 -- -- 38
2020-03-10 17:00:00 21.5 6 Noroeste 19 Oeste 0 -- -- 35
2020-03-10 16:00:00 21 7 Oeste 16 Oeste 0 -- -- 36
2020-03-10 15:00:00 21.3 6 Noroeste 18 Oeste 0 -- -- 33
2020-03-10 14:00:00 20.6 7 Norte 19 Norte 0 -- -- 30
2020-03-10 13:00:00 18.9 4 Nordeste 19 Norte 0 -- -- 32
2020-03-10 12:00:00 17.4 5 Nordeste 17 Norte 0 -- -- 34
2020-03-10 11:00:00 16 6 Nordeste 14 Noroeste 0 -- -- 39
2020-03-10 10:00:00 13.1 3 Norte 9 Oeste 0 -- -- 50
2020-03-10 09:00:00 8.9 3 Noroeste 6 Nordeste 0 -- -- 60
2020-03-10 08:00:00 6 2 Noroeste 8 Noroeste 0 -- -- 68
2020-03-10 07:00:00 6.8 0 Calma 13 Noroeste 0 -- -- 63
2020-03-10 06:00:00 6.8 4 Norte 10 Noroeste 0 -- -- 62
2020-03-10 05:00:00 4.8 0 Calma 8 Sur 0 -- -- 69
2020-03-10 04:00:00 5.4 3 Sur 6 Oeste 0 -- -- 65
2020-03-10 03:00:00 7.1 2 Oeste 11 Noroeste 0 -- -- 59
2020-03-10 02:00:00 7.7 0 Calma 15 Noroeste 0 -- -- 57
2020-03-10 01:00:00 9.2 5 Noroeste 15 Noroeste 0 -- -- 52
2020-03-10 00:00:00 10.3 5 Norte 19 Nordeste 0 -- -- 48
2020-03-09 23:00:00 10.8 0 Calma 16 Noroeste 0 -- -- 46
2020-03-09 22:00:00 12 8 Noroeste 26 Norte 0 -- -- 46
2020-03-09 21:00:00 12.4 13 Oeste 36 Oeste 0 -- -- 44
2020-03-09 20:00:00 13.1 11 Oeste 27 Oeste 0 -- -- 42
2020-03-09 19:00:00 14.4 13 Oeste 32 Oeste 0 -- -- 43
2020-03-09 18:00:00 15.7 14 Noroeste 39 Oeste 0 -- -- 38
2020-03-09 17:00:00 17.1 18 Oeste 46 Oeste 0 -- -- 36
2020-03-09 16:00:00 18 16 Noroeste 38 Noroeste 0 -- -- 35
2020-03-09 15:00:00 17 17 Noroeste 37 Oeste 0 -- -- 38
2020-03-09 14:00:00 16.2 11 Noroeste 28 Norte 0 -- -- 42
2020-03-09 13:00:00 14.9 12 Noroeste 32 Oeste 0 -- -- 44
2020-03-09 12:00:00 13.2 10 Noroeste 24 Oeste 0 -- -- 49
2020-03-09 11:00:00 12 13 Noroeste 28 Noroeste 0 -- -- 56
2020-03-09 10:00:00 10.2 12 Noroeste 33 Noroeste 0 -- -- 66
2020-03-09 09:00:00 8.8 10 Noroeste 27 Oeste 0 -- -- 72
2020-03-09 08:00:00 7.5 5 Noroeste 32 Noroeste 0 -- -- 76
2020-03-09 07:00:00 7.6 13 Noroeste 32 Noroeste 0 -- -- 74
2020-03-09 06:00:00 7.7 10 Noroeste 31 Noroeste 0 -- -- 74
2020-03-09 05:00:00 7.4 10 Noroeste 32 Oeste 0 -- -- 73
2020-03-09 04:00:00 8.4 18 Oeste 31 Noroeste 0 -- -- 67
2020-03-09 03:00:00 10 18 Oeste 31 Noroeste 0 -- -- 57
2020-03-09 02:00:00 11.1 10 Noroeste 25 Norte 0 -- -- 51
2020-03-09 01:00:00 11.7 7 Noroeste 24 Noroeste 0 -- -- 46
2020-03-09 00:00:00 12.3 9 Noroeste 23 Oeste 0 -- -- 44
2020-03-08 23:00:00 13 10 Noroeste 24 Oeste 0 -- -- 42
2020-03-08 22:00:00 12.8 9 Oeste 22 Oeste 0 -- -- 43
2020-03-08 21:00:00 13.7 12 Oeste 25 Oeste 0 -- -- 41
2020-03-08 20:00:00 13.8 8 Oeste 25 Oeste 0 -- -- 39
2020-03-08 19:00:00 15.3 10 Noroeste 27 Oeste 0 -- -- 33
2020-03-08 18:00:00 16.9 14 Noroeste 33 Oeste 0 -- -- 30
2020-03-08 17:00:00 18.5 12 Noroeste 36 Oeste 0 -- -- 28
2020-03-08 16:00:00 18.9 13 Noroeste 37 Noroeste 0 -- -- 28
2020-03-08 15:00:00 18.7 17 Oeste 38 Noroeste 0 -- -- 31
2020-03-08 14:00:00 18.9 10 Noroeste 26 Noroeste 0 -- -- 33
2020-03-08 13:00:00 17.1 10 Noroeste 28 Oeste 0 -- -- 35
2020-03-08 12:00:00 15.7 12 Noroeste 28 Oeste 0 -- -- 40
2020-03-08 11:00:00 14.1 12 Noroeste 30 Oeste 0 -- -- 46
2020-03-08 10:00:00 11.5 6 Oeste 23 Noroeste 0 -- -- 57
2020-03-08 09:00:00 6.5 5 Oeste 15 Oeste 0 -- -- 76
2020-03-08 08:00:00 1.1 0 Calma 10 Sur 0 -- -- 90
2020-03-08 07:00:00 0.5 4 Sudoeste 10 Sudoeste 0 -- -- 90
2020-03-08 06:00:00 1.3 4 Sudoeste 8 Sudoeste 0 -- -- 87
2020-03-08 05:00:00 2.9 0 Calma 5 Sudoeste 0 -- -- 82
2020-03-08 04:00:00 3.9 0 Calma 7 Oeste 0 -- -- 80
2020-03-08 03:00:00 5.8 0 Calma 18 Noroeste 0 -- -- 74
2020-03-08 02:00:00 4.9 0 Calma 16 Sudoeste 0 -- -- 75
2020-03-08 01:00:00 5.1 5 Oeste 14 Sudoeste 0 -- -- 75
2020-03-08 00:00:00 4.4 2 Sur 10 Sur 0 -- -- 74
2020-03-07 23:00:00 4.1 3 Sudoeste 9 Sudoeste 0 -- -- 73
2020-03-07 22:00:00 5.1 3 Sudoeste 8 Sudoeste 0 -- -- 69
2020-03-07 21:00:00 6.3 0 Calma 4 Sudoeste 0 -- -- 66
2020-03-07 20:00:00 8.5 0 Calma 10 Norte 0 -- -- 59
2020-03-07 19:00:00 11.4 3 Sur 11 Noroeste 0 -- -- 53
2020-03-07 18:00:00 14.3 5 Noroeste 28 Norte 0 -- -- 41
2020-03-07 17:00:00 16.2 9 Norte 25 Noroeste 0 -- -- 36
2020-03-07 16:00:00 15.8 9 Noroeste 35 Norte 0 -- -- 40
2020-03-07 15:00:00 14 13 Noroeste 32 Noroeste 0 -- -- 43
2020-03-07 14:00:00 13.2 15 Noroeste 38 Noroeste 0 -- -- 44
2020-03-07 13:00:00 11 15 Noroeste 40 Norte 0 -- -- 47
2020-03-07 12:00:00 9.8 14 Noroeste 40 Noroeste 0 -- -- 47
2020-03-07 11:00:00 8.8 17 Noroeste 48 Noroeste 0 -- -- 52
2020-03-07 10:00:00 6.6 10 Noroeste 31 Oeste 0 -- -- 52
2020-03-07 09:00:00 5.3 13 Noroeste 34 Norte 0 -- -- 56
2020-03-07 08:00:00 4.3 12 Noroeste 32 Noroeste 0 -- -- 58
2020-03-07 07:00:00 4.4 16 Noroeste 41 Noroeste 0 -- -- 56
2020-03-07 06:00:00 4.4 12 Noroeste 29 Oeste 0 -- -- 57
2020-03-07 05:00:00 4.6 12 Noroeste 31 Noroeste 0 -- -- 58
2020-03-07 04:00:00 4.8 10 Noroeste 26 Noroeste 0 -- -- 56
2020-03-07 03:00:00 5.2 10 Noroeste 24 Noroeste 0 -- -- 54
2020-03-07 02:00:00 6.1 8 Noroeste 35 Oeste 0 -- -- 51
2020-03-07 01:00:00 6.5 12 Noroeste 37 Noroeste 0 -- -- 47
2020-03-07 00:00:00 6.3 8 Noroeste 26 Oeste 0 -- -- 47
2020-03-06 23:00:00 6.8 10 Noroeste 27 Oeste 0 -- -- 45
2020-03-06 22:00:00 7.1 7 Noroeste 27 Norte 0 -- -- 43
2020-03-06 21:00:00 8.1 10 Noroeste 35 Noroeste 0 -- -- 38
2020-03-06 20:00:00 8.4 11 Noroeste 31 Oeste 0 -- -- 39
2020-03-06 19:00:00 9.2 13 Noroeste 49 Noroeste 0 -- -- 38
2020-03-06 18:00:00 10.8 16 Noroeste 51 Oeste 0 -- -- 36
2020-03-06 17:00:00 11.8 19 Noroeste 46 Oeste 0 -- -- 32
2020-03-06 16:00:00 11.7 19 Noroeste 54 Noroeste 0 -- -- 35
2020-03-06 15:00:00 12.2 22 Noroeste 55 Oeste 0 -- -- 39
2020-03-06 14:00:00 11.4 24 Noroeste 51 Noroeste 0 -- -- 43
2020-03-06 13:00:00 10.3 21 Noroeste 60 Noroeste 0 -- -- 47
2020-03-06 12:00:00 10 22 Noroeste 60 Oeste 0 -- -- 54
2020-03-06 11:00:00 10 26 Noroeste 49 Noroeste 0 -- -- 59
2020-03-06 10:00:00 7 17 Oeste 42 Oeste 0 -- -- 72
2020-03-06 09:00:00 5.9 18 Oeste 41 Oeste 0 -- -- 76
2020-03-06 08:00:00 4.6 11 Oeste 29 Oeste 0 -- -- 82
2020-03-06 07:00:00 5.4 14 Oeste 37 Oeste 0 -- -- 78
2020-03-06 06:00:00 6.4 18 Oeste 45 Oeste 0 -- -- 77
2020-03-06 05:00:00 6.9 16 Oeste 40 Oeste 0 -- -- 74
2020-03-06 04:00:00 7.8 15 Oeste 41 Oeste 0 -- -- 73
2020-03-06 03:00:00 8.1 19 Oeste 39 Noroeste 0 -- -- 75
2020-03-06 02:00:00 8.5 17 Oeste 39 Oeste 0 -- -- 73
2020-03-06 01:00:00 8.7 14 Oeste 40 Noroeste 0 -- -- 71
2020-03-06 00:00:00 9.3 15 Oeste 36 Noroeste 0 -- -- 68
2020-03-05 23:00:00 9.7 10 Oeste 23 Noroeste 0 -- -- 67
2020-03-05 22:00:00 10.2 10 Oeste 37 Noroeste 0 -- -- 64
2020-03-05 21:00:00 11 19 Oeste 41 Oeste 0 -- -- 63
2020-03-05 20:00:00 12.1 15 Noroeste 41 Oeste 0 -- -- 59
2020-03-05 19:00:00 13.2 20 Oeste 52 Noroeste 0 -- -- 54
2020-03-05 18:00:00 13.9 24 Oeste 49 Oeste 0 -- -- 52
2020-03-05 17:00:00 15 24 Oeste 49 Oeste 0 -- -- 61
2020-03-05 16:00:00 14.7 23 Oeste 50 Oeste 0 -- -- 63
2020-03-05 15:00:00 15.2 22 Oeste 52 Oeste 0 -- -- 60
2020-03-05 14:00:00 17 21 Oeste 51 Oeste 0 -- -- 53
2020-03-05 13:00:00 16.7 25 Oeste 54 Oeste 0 -- -- 54
2020-03-05 12:00:00 15 28 Oeste 57 Oeste 0 -- -- 57
2020-03-05 11:00:00 14 26 Oeste 54 Oeste 0 -- -- 60
2020-03-05 10:00:00 13.3 21 Oeste 46 Sudoeste 0 -- -- 64
2020-03-05 09:00:00 10.7 15 Oeste 31 Oeste 0 -- -- 76
2020-03-05 08:00:00 9.4 15 Oeste 32 Oeste 0 -- -- 80
2020-03-05 07:00:00 9.2 11 Oeste 32 Oeste 0 -- -- 79
2020-03-05 06:00:00 9.2 12 Oeste 36 Oeste 0 -- -- 75
2020-03-05 05:00:00 9 8 Oeste 22 Noroeste 0 -- -- 74
2020-03-05 04:00:00 9 9 Oeste 18 Sudoeste 0 -- -- 74
2020-03-05 03:00:00 9.4 9 Oeste 27 Oeste 0 -- -- 73
2020-03-05 02:00:00 8.8 5 Oeste 20 Oeste 0 -- -- 75
2020-03-05 01:00:00 9 8 Oeste 19 Oeste 0 -- -- 75
2020-03-05 00:00:00 9.2 8 Oeste 19 Noroeste 0 -- -- 74
2020-03-04 23:00:00 9.9 8 Oeste 26 Oeste 0 -- -- 71
2020-03-04 22:00:00 10.2 14 Oeste 28 Sudoeste 0 -- -- 70
2020-03-04 21:00:00 10.6 9 Oeste 22 Sudoeste 0 -- -- 69
2020-03-04 20:00:00 11.5 8 Oeste 24 Oeste 0 -- -- 65
2020-03-04 19:00:00 13 9 Oeste 26 Noroeste 0 -- -- 61
2020-03-04 18:00:00 14.2 13 Noroeste 37 Oeste 0 -- -- 58
2020-03-04 17:00:00 14.8 16 Oeste 35 Noroeste 0 -- -- 56
2020-03-04 16:00:00 15.4 14 Noroeste 35 Oeste 0 -- -- 56
2020-03-04 15:00:00 15.4 13 Oeste 36 Oeste 0 -- -- 58
2020-03-04 14:00:00 15.4 19 Oeste 44 Oeste 0 -- -- 58
2020-03-04 13:00:00 14.8 16 Oeste 33 Oeste 0 -- -- 64
2020-03-04 12:00:00 13.7 14 Noroeste 30 Oeste 0 -- -- 73
2020-03-04 11:00:00 13.1 14 Oeste 42 Oeste 0 -- -- 77
2020-03-04 10:00:00 13.2 21 Noroeste 40 Noroeste 0 -- -- 75
2020-03-04 09:00:00 12.4 15 Noroeste 39 Oeste 0 -- -- 78
2020-03-04 08:00:00 12.1 17 Noroeste 37 Oeste 0 -- -- 79
2020-03-04 07:00:00 12.1 7 Noroeste 19 Noroeste 0 -- -- 80
2020-03-04 06:00:00 12.1 4 Sur 15 Oeste 0 -- -- 80
2020-03-04 05:00:00 12.2 9 Oeste 33 Oeste 0 -- -- 80
2020-03-04 04:00:00 12 15 Noroeste 49 Noroeste 0 -- -- 81
2020-03-04 03:00:00 12.1 17 Noroeste 47 Noroeste 0 -- -- 81
2020-03-04 02:00:00 12.1 21 Noroeste 50 Noroeste 0 -- -- 80
2020-03-04 01:00:00 11.7 23 Noroeste 58 Oeste 0 -- -- 82
2020-03-04 00:00:00 11.7 23 Oeste 57 Oeste 0 -- -- 80
2020-03-03 23:00:00 11.7 28 Oeste 63 Noroeste 0 -- -- 79
2020-03-03 22:00:00 11.6 28 Oeste 65 Oeste 0 -- -- 78
2020-03-03 21:00:00 11.7 30 Oeste 65 Oeste 0 -- -- 76
2020-03-03 20:00:00 11.7 27 Oeste 62 Noroeste 0 -- -- 75
2020-03-03 19:00:00 12 22 Oeste 53 Noroeste 0 -- -- 71
2020-03-03 18:00:00 13.3 24 Oeste 66 Oeste 0 -- -- 65
2020-03-03 17:00:00 14.2 32 Noroeste 72 Oeste 0 -- -- 60
2020-03-03 16:00:00 14.6 31 Oeste 59 Oeste 0 -- -- 56
2020-03-03 15:00:00 13.4 20 Oeste 55 Oeste 0 -- -- 57
2020-03-03 14:00:00 13.3 23 Oeste 53 Oeste 0 -- -- 57
2020-03-03 13:00:00 12.1 20 Oeste 58 Oeste 0 -- -- 57
2020-03-03 12:00:00 10.2 20 Oeste 40 Noroeste 0 -- -- 61
2020-03-03 11:00:00 8.5 17 Oeste 47 Oeste 0 -- -- 66
2020-03-03 10:00:00 7.4 21 Oeste 40 Oeste 0 -- -- 70
2020-03-03 09:00:00 5.8 10 Oeste 28 Oeste 0 -- -- 76
2020-03-03 08:00:00 5.2 12 Oeste 25 Oeste 0 -- -- 76
2020-03-03 07:00:00 5.2 14 Oeste 33 Oeste 0 -- -- 70
2020-03-03 06:00:00 5 15 Oeste 35 Oeste 0 -- -- 70
2020-03-03 05:00:00 4.8 11 Oeste 28 Noroeste 0 -- -- 74
2020-03-03 04:00:00 3 2 Sudoeste 12 Norte 0 -- -- 80
2020-03-03 03:00:00 3.6 3 Noroeste 13 Oeste 0 -- -- 72
2020-03-03 02:00:00 4.6 4 Oeste 15 Sudeste 0 -- -- 64
2020-03-03 01:00:00 5.2 4 Sudeste 24 Noroeste 0 -- -- 60
2020-03-03 00:00:00 6.3 10 Oeste 35 Noroeste 0 -- -- 54
2020-03-02 23:00:00 6.8 13 Noroeste 41 Noroeste 0 -- -- 51
2020-03-02 22:00:00 7.2 16 Noroeste 38 Noroeste 0 -- -- 51
2020-03-02 21:00:00 7.2 16 Noroeste 42 Norte 0 -- -- 54
2020-03-02 20:00:00 7.7 14 Noroeste 49 Oeste 0 -- -- 56
2020-03-02 19:00:00 7.6 18 Noroeste 54 Oeste 0.2 -- -- 65
2020-03-02 18:00:00 8 24 Noroeste 53 Norte 0.4 -- -- 73
2020-03-02 17:00:00 8.8 17 Noroeste 53 Noroeste 0.4 -- -- 76
2020-03-02 16:00:00 13.4 28 Oeste 66 Oeste 0 -- -- 49
2020-03-02 15:00:00 14.5 28 Oeste 71 Oeste 0 -- -- 45
2020-03-02 14:00:00 15.8 33 Oeste 74 Oeste 0 -- -- 38
2020-03-02 13:00:00 15.3 41 Oeste 77 Oeste 0 -- -- 40
2020-03-02 12:00:00 14.9 40 Oeste 79 Sudoeste 0 -- -- 54
2020-03-02 11:00:00 15.7 40 Oeste 83 Oeste 0 -- -- 59
2020-03-02 10:00:00 15.1 38 Oeste 82 Oeste 0 -- -- 58
2020-03-02 09:00:00 13.4 27 Oeste 57 Oeste 0 -- -- 61
2020-03-02 08:00:00 12.4 17 Oeste 44 Oeste 0 -- -- 60
2020-03-02 07:00:00 12.4 21 Oeste 63 Oeste 0 -- -- 63
2020-03-02 06:00:00 12 23 Oeste 60 Oeste 0 -- -- 62
2020-03-02 05:00:00 12.5 28 Oeste 60 Oeste 0 -- -- 59
2020-03-02 04:00:00 11 12 Oeste 31 Oeste 0 -- -- 70
2020-03-02 03:00:00 10.7 10 Sudoeste 33 Sudoeste 0 -- -- 69
2020-03-02 02:00:00 11.1 13 Oeste 31 Oeste 0 -- -- 65
2020-03-02 01:00:00 10.9 6 Sudoeste 24 Sudoeste 0 -- -- 65
2020-03-02 00:00:00 11.1 11 Sudoeste 31 Sudoeste 0 -- -- 65
2020-03-01 23:00:00 10.1 9 Sudoeste 22 Sudoeste 0 -- -- 71
2020-03-01 22:00:00 9.9 7 Sudoeste 18 Sudoeste 0 -- -- 70
2020-03-01 21:00:00 10.8 5 Sudoeste 19 Oeste 0 -- -- 66
2020-03-01 20:00:00 10.9 5 Oeste 23 Oeste 0 -- -- 65
2020-03-01 19:00:00 12.6 12 Oeste 38 Oeste 0 -- -- 58
2020-03-01 18:00:00 13.9 19 Oeste 48 Oeste 0 -- -- 57
2020-03-01 17:00:00 14.7 21 Oeste 44 Oeste 0 -- -- 58
2020-03-01 16:00:00 15 19 Oeste 54 Oeste 0 -- -- 57
2020-03-01 15:00:00 15.2 23 Oeste 51 Noroeste 0 -- -- 54
2020-03-01 14:00:00 14.3 21 Oeste 48 Oeste 0 -- -- 57
2020-03-01 13:00:00 13.4 18 Oeste 43 Oeste 0 -- -- 62
2020-03-01 12:00:00 12.5 19 Oeste 50 Sudoeste 0 -- -- 64
2020-03-01 11:00:00 11.2 19 Oeste 45 Oeste 0 -- -- 68
2020-03-01 10:00:00 10.6 15 Oeste 37 Noroeste 0 -- -- 71
2020-03-01 09:00:00 9.8 18 Oeste 41 Oeste 0 -- -- 74
2020-03-01 08:00:00 8.9 14 Oeste 35 Oeste 0 -- -- 77
2020-03-01 07:00:00 8.8 12 Oeste 38 Oeste 0 -- -- 76
2020-03-01 06:00:00 9.5 20 Oeste 42 Noroeste 0 -- -- 74
2020-03-01 05:00:00 10.6 16 Oeste 34 Oeste 0 -- -- 78
2020-03-01 04:00:00 10.8 16 Oeste 33 Oeste 0 -- -- 75
2020-03-01 03:00:00 10.5 12 Oeste 40 Oeste 0 -- -- 77
2020-03-01 02:00:00 11 17 Oeste 46 Oeste 0 -- -- 73
2020-03-01 01:00:00 11.9 21 Oeste 47 Oeste 0 -- -- 72
2020-03-01 00:00:00 12.4 15 Oeste 35 Oeste 0 -- -- 69
2020-02-29 23:00:00 12.4 15 Oeste 38 Oeste 0 -- -- 68
2020-02-29 22:00:00 13 13 Oeste 29 Oeste 0 -- -- 64
2020-02-29 21:00:00 12.8 9 Oeste 20 Oeste 0 -- -- 63
2020-02-29 20:00:00 13.6 10 Oeste 27 Sudoeste 0 -- -- 59
2020-02-29 19:00:00 14.5 11 Oeste 43 Oeste 0 -- -- 54
2020-02-29 18:00:00 15.7 21 Oeste 44 Oeste 0 -- -- 50
2020-02-29 17:00:00 16.6 20 Oeste 40 Oeste 0 -- -- 43
2020-02-29 16:00:00 18.8 18 Oeste 39 Oeste 0 -- -- 37
2020-02-29 15:00:00 20.4 17 Oeste 35 Oeste 0 -- -- 33
2020-02-29 14:00:00 20.1 14 Oeste 38 Oeste 0 -- -- 34
2020-02-29 13:00:00 18.3 19 Oeste 45 Oeste 0 -- -- 35
2020-02-29 12:00:00 16.8 22 Oeste 49 Oeste 0 -- -- 41
2020-02-29 11:00:00 15.4 21 Oeste 45 Oeste 0 -- -- 44
2020-02-29 10:00:00 12.4 12 Oeste 24 Sudoeste 0 -- -- 50
2020-02-29 09:00:00 9.9 10 Oeste 26 Oeste 0 -- -- 56
2020-02-29 08:00:00 5.9 3 Oeste 13 Sudoeste 0 -- -- 71
2020-02-29 07:00:00 3.3 4 Sudoeste 10 Oeste 0 -- -- 87
2020-02-29 06:00:00 2.3 0 Calma 5 Sur 0 -- -- 86
2020-02-29 05:00:00 2.4 0 Calma 7 Este 0 -- -- 86
2020-02-29 04:00:00 2.5 0 Calma 4 Sudeste 0 -- -- 84
2020-02-29 03:00:00 2.9 0 Calma 3 Oeste 0 -- -- 82
2020-02-29 02:00:00 3.4 0 Calma 4 Sur 0 -- -- 79
2020-02-29 01:00:00 3.7 0 Calma 4 Sudoeste 0 -- -- 78
2020-02-29 00:00:00 4.1 0 Calma 4 Sudoeste 0 -- -- 75
2020-02-28 23:00:00 5.1 0 Calma 2 Oeste 0 -- -- 71
2020-02-28 22:00:00 6.8 0 Calma 6 Sur 0 -- -- 64
2020-02-28 21:00:00 9.2 4 Sudoeste 9 Sur 0 -- -- 57
2020-02-28 20:00:00 11 4 Sur 12 Sudoeste 0 -- -- 50
2020-02-28 19:00:00 13 4 Sur 17 Sur 0 -- -- 46
2020-02-28 18:00:00 15.6 9 Sudeste 24 Sur 0 -- -- 40
2020-02-28 17:00:00 19 10 Sur 27 Sudoeste 0 -- -- 31
2020-02-28 16:00:00 20.4 8 Sur 24 Sudoeste 0 -- -- 29
2020-02-28 15:00:00 20.6 11 Sur 23 Sur 0 -- -- 31
2020-02-28 14:00:00 20.2 8 Sudoeste 19 Sudeste 0 -- -- 29
2020-02-28 13:00:00 18.7 5 Nordeste 13 Noroeste 0 -- -- 36
2020-02-28 12:00:00 16.9 3 Nordeste 6 Noroeste 0 -- -- 42
2020-02-28 11:00:00 14.2 3 Nordeste 6 Norte 0 -- -- 53
2020-02-28 10:00:00 10.9 0 Calma 7 Sudoeste 0 -- -- 64
2020-02-28 09:00:00 5.7 3 Sudoeste 8 Sur 0 -- -- 77
2020-02-28 08:00:00 4.5 3 Sudoeste 9 Sur 0 -- -- 76
2020-02-28 07:00:00 5.5 0 Calma 12 Sudoeste 0 -- -- 73
2020-02-28 06:00:00 6.7 0 Calma 9 Sudoeste 0 -- -- 70
2020-02-28 05:00:00 6.3 2 Sur 9 Sudoeste 0 -- -- 72
2020-02-28 04:00:00 7.5 0 Calma 12 Sudoeste 0 -- -- 65
2020-02-28 03:00:00 8.1 0 Calma 15 Oeste 0 -- -- 63
2020-02-28 02:00:00 8.8 2 Noroeste 12 Oeste 0 -- -- 59
2020-02-28 01:00:00 9.7 5 Oeste 14 Oeste 0 -- -- 53
2020-02-28 00:00:00 10.3 6 Oeste 15 Oeste 0 -- -- 49